KCSQ

Creston Municipal Airport

Creston, Iowa, USA

KCSQ 110915Z AUTO 20005KT 10SM CLR 01/M04 A2995 RMK AO2

Observed Flight Rules
Dec-11 @ 09:15 UTC (20 minutes ago) Visual Flight Rules
Wind Visibility Clouds
200° at 5 knots 10 miles
  • Clear skies
Temperatures Readings
Current 1°C / 34°F
Dewpoint -4°C / 25°F
Humidity 70%
Altimeter 29.95" Hg
Pressure 1014 hPa
Elevation 394
Observed Flight Rules
Dec-11 @ 09:15 UTC
(20 minutes ago)
VFR
Wind Visibility
200° at 5 knots 10 miles
Clouds
  • Clear skies
Temperature Dewpoint
1°C / 34°F -4°C / 25°F
Humidity Altimeter Pressure
70% 29.95" Hg 1014 hPa